sensor_id;sensor_type;location;lat;lon;timestamp;P1;durP1;ratioP1;P2;durP2;ratioP2
80746;SDS011;70144;50.218;14.322;2023-08-31T00:01:08;5.82;;;3.58;;
80746;SDS011;70144;50.218;14.322;2023-08-31T00:03:34;4.75;;;3.00;;
80746;SDS011;70144;50.218;14.322;2023-08-31T00:06:01;4.07;;;3.08;;
80746;SDS011;70144;50.218;14.322;2023-08-31T00:08:28;7.07;;;2.97;;
80746;SDS011;70144;50.218;14.322;2023-08-31T00:10:57;4.35;;;3.05;;
80746;SDS011;70144;50.218;14.322;2023-08-31T00:13:23;6.85;;;3.78;;
80746;SDS011;70144;50.218;14.322;2023-08-31T00:15:49;6.55;;;3.70;;
80746;SDS011;70144;50.218;14.322;2023-08-31T00:18:14;5.35;;;3.58;;
80746;SDS011;70144;50.218;14.322;2023-08-31T00:20:41;4.32;;;3.10;;
80746;SDS011;70144;50.218;14.322;2023-08-31T00:23:07;5.65;;;3.25;;
80746;SDS011;70144;50.218;14.322;2023-08-31T00:25:32;3.15;;;2.67;;
80746;SDS011;70144;50.218;14.322;2023-08-31T00:27:58;4.78;;;3.50;;
80746;SDS011;70144;50.218;14.322;2023-08-31T00:30:29;4.07;;;3.10;;
80746;SDS011;70144;50.218;14.322;2023-08-31T00:32:55;4.88;;;3.88;;
80746;SDS011;70144;50.218;14.322;2023-08-31T00:35:25;7.10;;;3.40;;
80746;SDS011;70144;50.218;14.322;2023-08-31T00:37:52;4.50;;;3.53;;
80746;SDS011;70144;50.218;14.322;2023-08-31T00:40:17;4.45;;;3.05;;
80746;SDS011;70144;50.218;14.322;2023-08-31T00:42:43;5.57;;;3.58;;
80746;SDS011;70144;50.218;14.322;2023-08-31T00:45:08;4.43;;;3.28;;
80746;SDS011;70144;50.218;14.322;2023-08-31T00:47:35;4.20;;;3.10;;
80746;SDS011;70144;50.218;14.322;2023-08-31T00:50:00;6.13;;;3.47;;
80746;SDS011;70144;50.218;14.322;2023-08-31T00:52:26;3.45;;;3.13;;
80746;SDS011;70144;50.218;14.322;2023-08-31T00:54:52;5.20;;;3.70;;
80746;SDS011;70144;50.218;14.322;2023-08-31T00:57:17;5.07;;;2.90;;
80746;SDS011;70144;50.218;14.322;2023-08-31T00:59:43;4.10;;;3.25;;
80746;SDS011;70144;50.218;14.322;2023-08-31T01:02:30;3.80;;;3.00;;
80746;SDS011;70144;50.218;14.322;2023-08-31T01:13:03;3.65;;;2.70;;
80746;SDS011;70144;50.218;14.322;2023-08-31T01:15:39;3.67;;;2.60;;
80746;SDS011;70144;50.218;14.322;2023-08-31T01:18:11;4.32;;;2.88;;
80746;SDS011;70144;50.218;14.322;2023-08-31T01:21:02;4.50;;;3.42;;
80746;SDS011;70144;50.218;14.322;2023-08-31T01:23:30;4.07;;;3.28;;
80746;SDS011;70144;50.218;14.322;2023-08-31T01:26:08;3.30;;;2.65;;
80746;SDS011;70144;50.218;14.322;2023-08-31T01:28:34;4.03;;;3.25;;
80746;SDS011;70144;50.218;14.322;2023-08-31T01:31:03;4.40;;;3.10;;
80746;SDS011;70144;50.218;14.322;2023-08-31T01:33:29;5.20;;;3.40;;
80746;SDS011;70144;50.218;14.322;2023-08-31T01:35:55;5.15;;;3.50;;
80746;SDS011;70144;50.218;14.322;2023-08-31T01:38:25;5.28;;;3.08;;
80746;SDS011;70144;50.218;14.322;2023-08-31T01:40:59;3.85;;;2.85;;
80746;SDS011;70144;50.218;14.322;2023-08-31T01:43:31;6.32;;;3.90;;
80746;SDS011;70144;50.218;14.322;2023-08-31T01:46:01;4.70;;;3.00;;
80746;SDS011;70144;50.218;14.322;2023-08-31T01:48:26;6.00;;;3.47;;
80746;SDS011;70144;50.218;14.322;2023-08-31T01:50:52;5.38;;;2.97;;
80746;SDS011;70144;50.218;14.322;2023-08-31T01:53:17;4.05;;;3.38;;
80746;SDS011;70144;50.218;14.322;2023-08-31T01:55:43;5.47;;;3.28;;
80746;SDS011;70144;50.218;14.322;2023-08-31T01:58:08;6.50;;;3.03;;
80746;SDS011;70144;50.218;14.322;2023-08-31T02:00:33;4.65;;;3.25;;
80746;SDS011;70144;50.218;14.322;2023-08-31T02:03:00;5.35;;;3.10;;
80746;SDS011;70144;50.218;14.322;2023-08-31T02:05:26;5.38;;;3.22;;
80746;SDS011;70144;50.218;14.322;2023-08-31T02:07:52;5.95;;;3.38;;
80746;SDS011;70144;50.218;14.322;2023-08-31T02:10:18;5.03;;;3.75;;
80746;SDS011;70144;50.218;14.322;2023-08-31T02:12:43;5.32;;;3.42;;
80746;SDS011;70144;50.218;14.322;2023-08-31T02:15:09;4.93;;;3.42;;
80746;SDS011;70144;50.218;14.322;2023-08-31T02:17:34;5.72;;;3.00;;
80746;SDS011;70144;50.218;14.322;2023-08-31T02:20:00;4.65;;;3.30;;
80746;SDS011;70144;50.218;14.322;2023-08-31T02:22:27;3.83;;;2.95;;
80746;SDS011;70144;50.218;14.322;2023-08-31T02:24:54;3.13;;;2.55;;
80746;SDS011;70144;50.218;14.322;2023-08-31T02:27:20;3.90;;;2.45;;
80746;SDS011;70144;50.218;14.322;2023-08-31T02:29:45;4.78;;;3.08;;
80746;SDS011;70144;50.218;14.322;2023-08-31T02:32:10;5.47;;;2.95;;
80746;SDS011;70144;50.218;14.322;2023-08-31T02:34:36;3.83;;;2.80;;
80746;SDS011;70144;50.218;14.322;2023-08-31T02:37:01;3.85;;;3.33;;
80746;SDS011;70144;50.218;14.322;2023-08-31T02:39:26;3.50;;;2.92;;
80746;SDS011;70144;50.218;14.322;2023-08-31T02:41:52;3.40;;;2.50;;
80746;SDS011;70144;50.218;14.322;2023-08-31T02:44:17;3.17;;;2.67;;
80746;SDS011;70144;50.218;14.322;2023-08-31T02:46:42;3.35;;;2.92;;
80746;SDS011;70144;50.218;14.322;2023-08-31T02:49:08;3.60;;;2.75;;
80746;SDS011;70144;50.218;14.322;2023-08-31T02:51:33;3.85;;;2.80;;
80746;SDS011;70144;50.218;14.322;2023-08-31T02:53:58;5.22;;;3.33;;
80746;SDS011;70144;50.218;14.322;2023-08-31T02:56:24;3.08;;;2.38;;
80746;SDS011;70144;50.218;14.322;2023-08-31T02:58:49;4.82;;;2.83;;
80746;SDS011;70144;50.218;14.322;2023-08-31T03:01:14;4.78;;;3.00;;
80746;SDS011;70144;50.218;14.322;2023-08-31T03:03:41;4.63;;;2.75;;
80746;SDS011;70144;50.218;14.322;2023-08-31T03:06:07;3.30;;;2.65;;
80746;SDS011;70144;50.218;14.322;2023-08-31T03:08:34;3.03;;;2.53;;
80746;SDS011;70144;50.218;14.322;2023-08-31T03:11:00;3.47;;;2.70;;
80746;SDS011;70144;50.218;14.322;2023-08-31T03:13:27;3.53;;;2.50;;
80746;SDS011;70144;50.218;14.322;2023-08-31T03:15:52;3.30;;;2.75;;
80746;SDS011;70144;50.218;14.322;2023-08-31T03:18:18;3.75;;;2.45;;
80746;SDS011;70144;50.218;14.322;2023-08-31T03:20:43;3.25;;;2.65;;
80746;SDS011;70144;50.218;14.322;2023-08-31T03:23:09;4.38;;;2.42;;
80746;SDS011;70144;50.218;14.322;2023-08-31T03:25:36;3.65;;;2.67;;
80746;SDS011;70144;50.218;14.322;2023-08-31T03:28:01;5.05;;;3.25;;
80746;SDS011;70144;50.218;14.322;2023-08-31T03:30:27;4.00;;;2.78;;
80746;SDS011;70144;50.218;14.322;2023-08-31T03:32:53;3.38;;;3.00;;
80746;SDS011;70144;50.218;14.322;2023-08-31T03:35:19;3.90;;;2.85;;
80746;SDS011;70144;50.218;14.322;2023-08-31T03:37:46;3.50;;;2.38;;
80746;SDS011;70144;50.218;14.322;2023-08-31T03:40:12;3.15;;;2.60;;
80746;SDS011;70144;50.218;14.322;2023-08-31T03:42:38;4.35;;;2.70;;
80746;SDS011;70144;50.218;14.322;2023-08-31T03:45:04;3.78;;;2.80;;
80746;SDS011;70144;50.218;14.322;2023-08-31T03:47:29;5.70;;;2.55;;
80746;SDS011;70144;50.218;14.322;2023-08-31T03:49:55;3.72;;;2.63;;
80746;SDS011;70144;50.218;14.322;2023-08-31T03:52:21;3.35;;;2.53;;
80746;SDS011;70144;50.218;14.322;2023-08-31T03:54:46;4.90;;;2.70;;
80746;SDS011;70144;50.218;14.322;2023-08-31T03:57:11;4.68;;;2.67;;
80746;SDS011;70144;50.218;14.322;2023-08-31T03:59:37;3.60;;;2.55;;
80746;SDS011;70144;50.218;14.322;2023-08-31T04:02:02;4.38;;;2.35;;
80746;SDS011;70144;50.218;14.322;2023-08-31T04:04:28;3.75;;;2.72;;
80746;SDS011;70144;50.218;14.322;2023-08-31T04:06:54;4.68;;;2.80;;
80746;SDS011;70144;50.218;14.322;2023-08-31T04:09:19;4.05;;;2.55;;
80746;SDS011;70144;50.218;14.322;2023-08-31T04:11:44;4.47;;;2.53;;
80746;SDS011;70144;50.218;14.322;2023-08-31T04:14:10;6.88;;;2.53;;
80746;SDS011;70144;50.218;14.322;2023-08-31T04:16:35;3.35;;;2.40;;
80746;SDS011;70144;50.218;14.322;2023-08-31T04:19:01;4.57;;;2.50;;
80746;SDS011;70144;50.218;14.322;2023-08-31T04:21:26;3.72;;;3.00;;
80746;SDS011;70144;50.218;14.322;2023-08-31T04:23:52;5.53;;;2.97;;
80746;SDS011;70144;50.218;14.322;2023-08-31T04:26:17;3.67;;;2.28;;
80746;SDS011;70144;50.218;14.322;2023-08-31T04:28:42;4.90;;;2.97;;
80746;SDS011;70144;50.218;14.322;2023-08-31T04:31:08;5.50;;;3.03;;
80746;SDS011;70144;50.218;14.322;2023-08-31T04:33:34;4.07;;;2.50;;
80746;SDS011;70144;50.218;14.322;2023-08-31T04:38:26;3.28;;;2.28;;
80746;SDS011;70144;50.218;14.322;2023-08-31T04:40:51;5.32;;;2.47;;
80746;SDS011;70144;50.218;14.322;2023-08-31T04:43:17;2.75;;;2.30;;
80746;SDS011;70144;50.218;14.322;2023-08-31T04:45:42;4.60;;;3.03;;
80746;SDS011;70144;50.218;14.322;2023-08-31T04:48:07;4.18;;;2.47;;
80746;SDS011;70144;50.218;14.322;2023-08-31T04:50:33;3.05;;;2.08;;
80746;SDS011;70144;50.218;14.322;2023-08-31T04:52:58;7.05;;;2.72;;
80746;SDS011;70144;50.218;14.322;2023-08-31T04:55:23;3.85;;;2.28;;
80746;SDS011;70144;50.218;14.322;2023-08-31T04:57:50;3.08;;;1.90;;
80746;SDS011;70144;50.218;14.322;2023-08-31T05:00:15;5.70;;;2.20;;
80746;SDS011;70144;50.218;14.322;2023-08-31T05:02:41;2.38;;;1.75;;
80746;SDS011;70144;50.218;14.322;2023-08-31T05:05:06;3.05;;;1.85;;
80746;SDS011;70144;50.218;14.322;2023-08-31T05:07:32;2.88;;;2.03;;
80746;SDS011;70144;50.218;14.322;2023-08-31T05:09:57;3.08;;;1.95;;
80746;SDS011;70144;50.218;14.322;2023-08-31T05:12:23;3.92;;;2.45;;
80746;SDS011;70144;50.218;14.322;2023-08-31T05:14:48;2.92;;;2.15;;
80746;SDS011;70144;50.218;14.322;2023-08-31T05:17:13;4.95;;;2.00;;
80746;SDS011;70144;50.218;14.322;2023-08-31T05:19:39;3.25;;;2.05;;
80746;SDS011;70144;50.218;14.322;2023-08-31T05:22:05;4.07;;;1.80;;
80746;SDS011;70144;50.218;14.322;2023-08-31T05:24:30;3.97;;;2.05;;
80746;SDS011;70144;50.218;14.322;2023-08-31T05:26:55;4.70;;;2.30;;
80746;SDS011;70144;50.218;14.322;2023-08-31T05:29:21;2.97;;;1.83;;
80746;SDS011;70144;50.218;14.322;2023-08-31T05:31:46;2.78;;;1.98;;
80746;SDS011;70144;50.218;14.322;2023-08-31T05:34:15;3.75;;;2.00;;
80746;SDS011;70144;50.218;14.322;2023-08-31T05:36:42;4.65;;;2.08;;
80746;SDS011;70144;50.218;14.322;2023-08-31T05:39:08;2.42;;;1.75;;
80746;SDS011;70144;50.218;14.322;2023-08-31T05:41:34;2.60;;;2.00;;
80746;SDS011;70144;50.218;14.322;2023-08-31T05:43:59;4.13;;;1.98;;
80746;SDS011;70144;50.218;14.322;2023-08-31T05:46:25;3.70;;;3.05;;
80746;SDS011;70144;50.218;14.322;2023-08-31T05:48:50;3.50;;;1.73;;
80746;SDS011;70144;50.218;14.322;2023-08-31T05:51:17;2.95;;;1.67;;
80746;SDS011;70144;50.218;14.322;2023-08-31T05:53:42;2.38;;;2.00;;
80746;SDS011;70144;50.218;14.322;2023-08-31T05:56:08;4.07;;;2.20;;
80746;SDS011;70144;50.218;14.322;2023-08-31T05:58:34;4.38;;;1.90;;
80746;SDS011;70144;50.218;14.322;2023-08-31T06:01:03;3.75;;;1.75;;
80746;SDS011;70144;50.218;14.322;2023-08-31T06:03:29;3.55;;;1.60;;
80746;SDS011;70144;50.218;14.322;2023-08-31T06:05:55;2.13;;;1.67;;
80746;SDS011;70144;50.218;14.322;2023-08-31T06:08:21;2.42;;;1.60;;
80746;SDS011;70144;50.218;14.322;2023-08-31T06:10:47;3.05;;;1.98;;
80746;SDS011;70144;50.218;14.322;2023-08-31T06:13:12;2.13;;;1.63;;
80746;SDS011;70144;50.218;14.322;2023-08-31T06:15:37;2.45;;;1.98;;
80746;SDS011;70144;50.218;14.322;2023-08-31T06:18:03;2.67;;;1.73;;
80746;SDS011;70144;50.218;14.322;2023-08-31T06:20:30;3.15;;;1.45;;
80746;SDS011;70144;50.218;14.322;2023-08-31T06:22:55;2.67;;;1.58;;
80746;SDS011;70144;50.218;14.322;2023-08-31T06:25:21;1.90;;;1.52;;
80746;SDS011;70144;50.218;14.322;2023-08-31T06:27:47;3.67;;;1.90;;
80746;SDS011;70144;50.218;14.322;2023-08-31T06:30:13;2.35;;;2.03;;
80746;SDS011;70144;50.218;14.322;2023-08-31T06:32:42;3.50;;;1.60;;
80746;SDS011;70144;50.218;14.322;2023-08-31T06:35:08;2.20;;;1.52;;
80746;SDS011;70144;50.218;14.322;2023-08-31T06:37:33;2.20;;;1.45;;
80746;SDS011;70144;50.218;14.322;2023-08-31T06:39:59;2.72;;;1.98;;
80746;SDS011;70144;50.218;14.322;2023-08-31T06:42:24;2.75;;;1.67;;
80746;SDS011;70144;50.218;14.322;2023-08-31T06:44:49;3.45;;;1.90;;
80746;SDS011;70144;50.218;14.322;2023-08-31T06:47:15;2.80;;;1.80;;
80746;SDS011;70144;50.218;14.322;2023-08-31T06:49:42;3.55;;;2.30;;
80746;SDS011;70144;50.218;14.322;2023-08-31T06:52:07;2.55;;;1.65;;
80746;SDS011;70144;50.218;14.322;2023-08-31T06:54:33;2.30;;;1.80;;
80746;SDS011;70144;50.218;14.322;2023-08-31T06:56:59;2.63;;;1.77;;
80746;SDS011;70144;50.218;14.322;2023-08-31T06:59:24;4.43;;;1.80;;
80746;SDS011;70144;50.218;14.322;2023-08-31T07:01:49;2.70;;;1.52;;
80746;SDS011;70144;50.218;14.322;2023-08-31T07:04:15;1.73;;;1.45;;
80746;SDS011;70144;50.218;14.322;2023-08-31T07:06:40;5.22;;;3.28;;
80746;SDS011;70144;50.218;14.322;2023-08-31T07:09:06;3.78;;;2.22;;
80746;SDS011;70144;50.218;14.322;2023-08-31T07:11:33;6.45;;;3.65;;
80746;SDS011;70144;50.218;14.322;2023-08-31T07:13:58;4.03;;;2.25;;
80746;SDS011;70144;50.218;14.322;2023-08-31T07:16:24;2.35;;;1.63;;
80746;SDS011;70144;50.218;14.322;2023-08-31T07:18:50;4.32;;;2.53;;
80746;SDS011;70144;50.218;14.322;2023-08-31T07:21:15;5.75;;;1.88;;
80746;SDS011;70144;50.218;14.322;2023-08-31T07:23:40;2.67;;;1.80;;
80746;SDS011;70144;50.218;14.322;2023-08-31T07:26:06;1.92;;;1.38;;
80746;SDS011;70144;50.218;14.322;2023-08-31T07:28:31;3.22;;;1.58;;
80746;SDS011;70144;50.218;14.322;2023-08-31T07:33:28;1.75;;;1.15;;
80746;SDS011;70144;50.218;14.322;2023-08-31T07:35:55;2.08;;;1.55;;
80746;SDS011;70144;50.218;14.322;2023-08-31T07:38:21;3.28;;;1.60;;
80746;SDS011;70144;50.218;14.322;2023-08-31T07:40:46;3.00;;;1.40;;
80746;SDS011;70144;50.218;14.322;2023-08-31T07:43:11;2.80;;;1.42;;
80746;SDS011;70144;50.218;14.322;2023-08-31T07:45:37;2.47;;;1.30;;
80746;SDS011;70144;50.218;14.322;2023-08-31T07:48:02;4.03;;;1.52;;
80746;SDS011;70144;50.218;14.322;2023-08-31T07:50:28;1.67;;;1.20;;
80746;SDS011;70144;50.218;14.322;2023-08-31T07:52:53;2.67;;;1.55;;
80746;SDS011;70144;50.218;14.322;2023-08-31T07:55:19;1.73;;;1.40;;
80746;SDS011;70144;50.218;14.322;2023-08-31T07:57:44;3.03;;;1.50;;
80746;SDS011;70144;50.218;14.322;2023-08-31T08:00:09;2.20;;;1.63;;
80746;SDS011;70144;50.218;14.322;2023-08-31T08:02:35;2.75;;;1.20;;
80746;SDS011;70144;50.218;14.322;2023-08-31T08:05:00;2.42;;;1.17;;
80746;SDS011;70144;50.218;14.322;2023-08-31T08:07:26;2.40;;;1.27;;
80746;SDS011;70144;50.218;14.322;2023-08-31T08:09:51;2.42;;;0.98;;
80746;SDS011;70144;50.218;14.322;2023-08-31T08:12:16;1.15;;;0.93;;
80746;SDS011;70144;50.218;14.322;2023-08-31T08:14:42;2.00;;;0.95;;
80746;SDS011;70144;50.218;14.322;2023-08-31T08:17:07;2.28;;;1.25;;
80746;SDS011;70144;50.218;14.322;2023-08-31T08:19:32;3.33;;;1.17;;
80746;SDS011;70144;50.218;14.322;2023-08-31T08:21:58;1.83;;;1.02;;
80746;SDS011;70144;50.218;14.322;2023-08-31T08:24:23;3.50;;;1.30;;
80746;SDS011;70144;50.218;14.322;2023-08-31T08:26:48;3.22;;;1.13;;
80746;SDS011;70144;50.218;14.322;2023-08-31T08:29:14;2.13;;;1.17;;
80746;SDS011;70144;50.218;14.322;2023-08-31T08:31:39;2.28;;;1.08;;
80746;SDS011;70144;50.218;14.322;2023-08-31T08:34:04;2.75;;;0.95;;
80746;SDS011;70144;50.218;14.322;2023-08-31T08:36:30;2.45;;;1.30;;
80746;SDS011;70144;50.218;14.322;2023-08-31T08:38:56;1.95;;;1.10;;
80746;SDS011;70144;50.218;14.322;2023-08-31T08:41:22;3.60;;;1.70;;
80746;SDS011;70144;50.218;14.322;2023-08-31T08:43:49;2.30;;;1.42;;
80746;SDS011;70144;50.218;14.322;2023-08-31T08:46:16;1.77;;;1.40;;
80746;SDS011;70144;50.218;14.322;2023-08-31T08:51:07;1.90;;;1.30;;
80746;SDS011;70144;50.218;14.322;2023-08-31T08:55:58;2.97;;;1.10;;
80746;SDS011;70144;50.218;14.322;2023-08-31T09:00:49;2.30;;;1.10;;
80746;SDS011;70144;50.218;14.322;2023-08-31T09:03:16;1.77;;;1.02;;
80746;SDS011;70144;50.218;14.322;2023-08-31T09:05:42;1.90;;;1.05;;
80746;SDS011;70144;50.218;14.322;2023-08-31T09:10:41;2.80;;;0.80;;
80746;SDS011;70144;50.218;14.322;2023-08-31T09:13:12;3.78;;;1.40;;
80746;SDS011;70144;50.218;14.322;2023-08-31T09:15:47;2.70;;;1.15;;
80746;SDS011;70144;50.218;14.322;2023-08-31T09:18:16;2.67;;;1.35;;
80746;SDS011;70144;50.218;14.322;2023-08-31T09:20:49;2.50;;;1.40;;
80746;SDS011;70144;50.218;14.322;2023-08-31T09:25:41;1.67;;;1.10;;
80746;SDS011;70144;50.218;14.322;2023-08-31T09:28:19;2.85;;;1.00;;
80746;SDS011;70144;50.218;14.322;2023-08-31T09:30:46;3.78;;;1.27;;
80746;SDS011;70144;50.218;14.322;2023-08-31T09:33:14;3.50;;;1.20;;
80746;SDS011;70144;50.218;14.322;2023-08-31T09:35:47;4.03;;;1.40;;
80746;SDS011;70144;50.218;14.322;2023-08-31T09:38:16;2.95;;;1.30;;
80746;SDS011;70144;50.218;14.322;2023-08-31T09:40:42;7.15;;;1.55;;
80746;SDS011;70144;50.218;14.322;2023-08-31T09:43:08;2.60;;;1.20;;
80746;SDS011;70144;50.218;14.322;2023-08-31T09:45:34;2.40;;;1.25;;
80746;SDS011;70144;50.218;14.322;2023-08-31T09:48:00;3.35;;;1.17;;
80746;SDS011;70144;50.218;14.322;2023-08-31T09:50:30;1.67;;;0.90;;
80746;SDS011;70144;50.218;14.322;2023-08-31T09:53:00;1.65;;;1.10;;
80746;SDS011;70144;50.218;14.322;2023-08-31T09:55:28;2.90;;;1.20;;
80746;SDS011;70144;50.218;14.322;2023-08-31T09:57:56;3.05;;;1.30;;
80746;SDS011;70144;50.218;14.322;2023-08-31T10:00:25;3.65;;;1.52;;
80746;SDS011;70144;50.218;14.322;2023-08-31T10:02:52;5.25;;;1.20;;
80746;SDS011;70144;50.218;14.322;2023-08-31T10:05:20;2.70;;;1.30;;
80746;SDS011;70144;50.218;14.322;2023-08-31T10:07:47;2.15;;;1.20;;
80746;SDS011;70144;50.218;14.322;2023-08-31T10:12:39;3.05;;;1.60;;
80746;SDS011;70144;50.218;14.322;2023-08-31T10:15:06;2.22;;;1.27;;
80746;SDS011;70144;50.218;14.322;2023-08-31T10:17:31;2.72;;;1.20;;
80746;SDS011;70144;50.218;14.322;2023-08-31T10:19:57;3.53;;;1.25;;
80746;SDS011;70144;50.218;14.322;2023-08-31T10:24:57;2.88;;;1.10;;
80746;SDS011;70144;50.218;14.322;2023-08-31T10:27:26;2.38;;;1.13;;
80746;SDS011;70144;50.218;14.322;2023-08-31T10:29:52;2.42;;;1.23;;
80746;SDS011;70144;50.218;14.322;2023-08-31T10:32:18;3.70;;;1.45;;
80746;SDS011;70144;50.218;14.322;2023-08-31T10:34:43;2.33;;;1.20;;
80746;SDS011;70144;50.218;14.322;2023-08-31T10:37:21;4.68;;;1.38;;
80746;SDS011;70144;50.218;14.322;2023-08-31T10:39:47;1.50;;;0.98;;
80746;SDS011;70144;50.218;14.322;2023-08-31T10:42:12;2.35;;;1.08;;
80746;SDS011;70144;50.218;14.322;2023-08-31T10:44:37;2.30;;;1.00;;
80746;SDS011;70144;50.218;14.322;2023-08-31T10:47:07;4.22;;;1.27;;
80746;SDS011;70144;50.218;14.322;2023-08-31T10:49:33;3.00;;;1.30;;
80746;SDS011;70144;50.218;14.322;2023-08-31T10:52:17;2.08;;;1.17;;
80746;SDS011;70144;50.218;14.322;2023-08-31T10:54:45;2.47;;;1.20;;
80746;SDS011;70144;50.218;14.322;2023-08-31T10:57:11;1.73;;;1.02;;
80746;SDS011;70144;50.218;14.322;2023-08-31T11:02:26;3.13;;;1.15;;
80746;SDS011;70144;50.218;14.322;2023-08-31T11:05:01;4.88;;;1.50;;
80746;SDS011;70144;50.218;14.322;2023-08-31T11:07:31;2.70;;;1.10;;
80746;SDS011;70144;50.218;14.322;2023-08-31T11:10:10;2.75;;;1.90;;
80746;SDS011;70144;50.218;14.322;2023-08-31T11:12:42;2.60;;;1.30;;
80746;SDS011;70144;50.218;14.322;2023-08-31T11:15:11;3.78;;;1.60;;
80746;SDS011;70144;50.218;14.322;2023-08-31T11:17:37;6.57;;;1.95;;
80746;SDS011;70144;50.218;14.322;2023-08-31T11:20:05;2.85;;;1.75;;
80746;SDS011;70144;50.218;14.322;2023-08-31T11:22:31;2.88;;;1.60;;
80746;SDS011;70144;50.218;14.322;2023-08-31T11:24:58;3.42;;;1.83;;
80746;SDS011;70144;50.218;14.322;2023-08-31T11:27:24;4.03;;;1.50;;
80746;SDS011;70144;50.218;14.322;2023-08-31T11:29:50;1.85;;;0.98;;
80746;SDS011;70144;50.218;14.322;2023-08-31T11:32:15;2.67;;;1.10;;
80746;SDS011;70144;50.218;14.322;2023-08-31T11:34:41;4.30;;;1.27;;
80746;SDS011;70144;50.218;14.322;2023-08-31T11:37:13;2.50;;;0.93;;
80746;SDS011;70144;50.218;14.322;2023-08-31T11:39:51;2.13;;;0.60;;
80746;SDS011;70144;50.218;14.322;2023-08-31T11:42:18;1.00;;;0.50;;
80746;SDS011;70144;50.218;14.322;2023-08-31T11:44:46;2.60;;;0.95;;
80746;SDS011;70144;50.218;14.322;2023-08-31T11:47:16;1.58;;;0.60;;
80746;SDS011;70144;50.218;14.322;2023-08-31T11:49:42;1.45;;;0.88;;
80746;SDS011;70144;50.218;14.322;2023-08-31T11:52:12;3.08;;;0.93;;
80746;SDS011;70144;50.218;14.322;2023-08-31T11:54:38;2.17;;;1.10;;
80746;SDS011;70144;50.218;14.322;2023-08-31T11:57:07;3.03;;;1.00;;
80746;SDS011;70144;50.218;14.322;2023-08-31T11:59:36;2.08;;;1.00;;
80746;SDS011;70144;50.218;14.322;2023-08-31T12:02:08;4.22;;;1.10;;
80746;SDS011;70144;50.218;14.322;2023-08-31T12:04:43;13.63;;;7.40;;
80746;SDS011;70144;50.218;14.322;2023-08-31T12:07:09;9.35;;;6.47;;
80746;SDS011;70144;50.218;14.322;2023-08-31T12:09:35;4.75;;;3.53;;
80746;SDS011;70144;50.218;14.322;2023-08-31T12:12:00;2.42;;;0.98;;
80746;SDS011;70144;50.218;14.322;2023-08-31T12:14:26;1.55;;;0.90;;
80746;SDS011;70144;50.218;14.322;2023-08-31T12:16:53;1.60;;;1.00;;
80746;SDS011;70144;50.218;14.322;2023-08-31T12:19:26;2.60;;;1.30;;
80746;SDS011;70144;50.218;14.322;2023-08-31T12:21:54;8.10;;;5.80;;
80746;SDS011;70144;50.218;14.322;2023-08-31T12:24:19;3.95;;;2.35;;
80746;SDS011;70144;50.218;14.322;2023-08-31T12:29:10;2.37;;;2.00;;
80746;SDS011;70144;50.218;14.322;2023-08-31T12:34:01;2.30;;;1.10;;
80746;SDS011;70144;50.218;14.322;2023-08-31T12:36:29;2.38;;;0.90;;
80746;SDS011;70144;50.218;14.322;2023-08-31T12:41:22;2.33;;;0.88;;
80746;SDS011;70144;50.218;14.322;2023-08-31T12:43:49;2.58;;;0.80;;
80746;SDS011;70144;50.218;14.322;2023-08-31T12:48:41;2.10;;;1.00;;
80746;SDS011;70144;50.218;14.322;2023-08-31T12:51:07;2.50;;;1.30;;
80746;SDS011;70144;50.218;14.322;2023-08-31T12:53:32;3.30;;;1.23;;
80746;SDS011;70144;50.218;14.322;2023-08-31T12:56:02;1.70;;;1.27;;
80746;SDS011;70144;50.218;14.322;2023-08-31T13:00:54;2.13;;;1.03;;
80746;SDS011;70144;50.218;14.322;2023-08-31T13:03:19;1.70;;;1.00;;
80746;SDS011;70144;50.218;14.322;2023-08-31T13:05:45;2.42;;;1.02;;
80746;SDS011;70144;50.218;14.322;2023-08-31T13:10:35;1.90;;;0.80;;
80746;SDS011;70144;50.218;14.322;2023-08-31T13:15:26;1.60;;;1.00;;
80746;SDS011;70144;50.218;14.322;2023-08-31T13:20:16;2.07;;;0.70;;
80746;SDS011;70144;50.218;14.322;2023-08-31T13:22:42;1.92;;;0.98;;
80746;SDS011;70144;50.218;14.322;2023-08-31T13:27:32;2.30;;;0.70;;
80746;SDS011;70144;50.218;14.322;2023-08-31T13:29:58;2.00;;;0.60;;
80746;SDS011;70144;50.218;14.322;2023-08-31T13:32:24;2.97;;;0.80;;
80746;SDS011;70144;50.218;14.322;2023-08-31T13:37:15;0.57;;;0.47;;
80746;SDS011;70144;50.218;14.322;2023-08-31T13:39:40;4.13;;;1.17;;
80746;SDS011;70144;50.218;14.322;2023-08-31T13:42:06;1.67;;;0.70;;
80746;SDS011;70144;50.218;14.322;2023-08-31T13:44:31;2.97;;;0.90;;
80746;SDS011;70144;50.218;14.322;2023-08-31T13:46:57;2.00;;;0.90;;
80746;SDS011;70144;50.218;14.322;2023-08-31T13:51:49;1.95;;;0.70;;
80746;SDS011;70144;50.218;14.322;2023-08-31T13:54:15;2.13;;;0.85;;
80746;SDS011;70144;50.218;14.322;2023-08-31T13:56:40;1.23;;;0.70;;
80746;SDS011;70144;50.218;14.322;2023-08-31T13:59:06;2.05;;;1.00;;
80746;SDS011;70144;50.218;14.322;2023-08-31T14:01:31;3.33;;;0.93;;
80746;SDS011;70144;50.218;14.322;2023-08-31T14:03:56;2.50;;;1.00;;
80746;SDS011;70144;50.218;14.322;2023-08-31T14:06:22;2.72;;;1.00;;
80746;SDS011;70144;50.218;14.322;2023-08-31T14:11:13;2.17;;;0.90;;
80746;SDS011;70144;50.218;14.322;2023-08-31T14:13:39;1.30;;;0.82;;
80746;SDS011;70144;50.218;14.322;2023-08-31T14:16:04;2.60;;;0.95;;
80746;SDS011;70144;50.218;14.322;2023-08-31T14:18:30;2.80;;;0.95;;
80746;SDS011;70144;50.218;14.322;2023-08-31T14:20:56;2.00;;;0.80;;
80746;SDS011;70144;50.218;14.322;2023-08-31T14:23:23;1.73;;;1.08;;
80746;SDS011;70144;50.218;14.322;2023-08-31T14:28:14;1.90;;;0.93;;
80746;SDS011;70144;50.218;14.322;2023-08-31T14:33:05;1.30;;;0.80;;
80746;SDS011;70144;50.218;14.322;2023-08-31T14:35:30;3.72;;;1.00;;
80746;SDS011;70144;50.218;14.322;2023-08-31T14:37:56;3.47;;;1.02;;
80746;SDS011;70144;50.218;14.322;2023-08-31T14:40:23;1.77;;;0.90;;
80746;SDS011;70144;50.218;14.322;2023-08-31T14:45:13;2.47;;;0.93;;
80746;SDS011;70144;50.218;14.322;2023-08-31T14:47:39;2.50;;;1.05;;
80746;SDS011;70144;50.218;14.322;2023-08-31T14:52:29;2.38;;;1.02;;
80746;SDS011;70144;50.218;14.322;2023-08-31T14:54:55;2.05;;;1.08;;
80746;SDS011;70144;50.218;14.322;2023-08-31T14:59:46;2.67;;;1.20;;
80746;SDS011;70144;50.218;14.322;2023-08-31T15:04:37;3.00;;;1.47;;
80746;SDS011;70144;50.218;14.322;2023-08-31T15:09:28;3.15;;;1.40;;
80746;SDS011;70144;50.218;14.322;2023-08-31T15:11:53;2.85;;;1.20;;
80746;SDS011;70144;50.218;14.322;2023-08-31T15:16:44;4.15;;;1.05;;
80746;SDS011;70144;50.218;14.322;2023-08-31T15:19:09;4.22;;;1.20;;
80746;SDS011;70144;50.218;14.322;2023-08-31T15:21:34;3.05;;;1.38;;
80746;SDS011;70144;50.218;14.322;2023-08-31T15:26:26;3.13;;;1.02;;
80746;SDS011;70144;50.218;14.322;2023-08-31T15:28:51;3.00;;;1.30;;
80746;SDS011;70144;50.218;14.322;2023-08-31T15:31:17;2.42;;;1.20;;
80746;SDS011;70144;50.218;14.322;2023-08-31T15:33:43;1.10;;;0.90;;
80746;SDS011;70144;50.218;14.322;2023-08-31T15:36:09;2.13;;;1.00;;
80746;SDS011;70144;50.218;14.322;2023-08-31T15:38:35;10.30;;;5.45;;
80746;SDS011;70144;50.218;14.322;2023-08-31T15:41:02;20.25;;;10.90;;
80746;SDS011;70144;50.218;14.322;2023-08-31T15:43:30;20.08;;;10.32;;
80746;SDS011;70144;50.218;14.322;2023-08-31T15:45:57;21.48;;;10.52;;
80746;SDS011;70144;50.218;14.322;2023-08-31T15:48:23;20.23;;;10.40;;
80746;SDS011;70144;50.218;14.322;2023-08-31T15:50:48;13.65;;;8.45;;
80746;SDS011;70144;50.218;14.322;2023-08-31T15:53:14;13.55;;;7.75;;